sensor_id;sensor_type;location;lat;lon;timestamp;P1;durP1;ratioP1;P2;durP2;ratioP2
75645;SDS011;64237;52.438;13.240;2023-08-17T00:00:41;4.07;;;1.70;;
75645;SDS011;64237;52.438;13.240;2023-08-17T00:03:06;4.03;;;1.70;;
75645;SDS011;64237;52.438;13.240;2023-08-17T00:05:31;4.93;;;2.10;;
75645;SDS011;64237;52.438;13.240;2023-08-17T00:07:59;5.60;;;1.77;;
75645;SDS011;64237;52.438;13.240;2023-08-17T00:10:26;5.60;;;1.90;;
75645;SDS011;64237;52.438;13.240;2023-08-17T00:12:51;5.30;;;1.90;;
75645;SDS011;64237;52.438;13.240;2023-08-17T00:15:16;7.07;;;2.00;;
75645;SDS011;64237;52.438;13.240;2023-08-17T00:17:42;4.33;;;1.70;;
75645;SDS011;64237;52.438;13.240;2023-08-17T00:20:07;4.17;;;1.87;;
75645;SDS011;64237;52.438;13.240;2023-08-17T00:22:34;3.92;;;1.80;;
75645;SDS011;64237;52.438;13.240;2023-08-17T00:25:00;4.88;;;2.00;;
75645;SDS011;64237;52.438;13.240;2023-08-17T00:27:25;4.90;;;2.10;;
75645;SDS011;64237;52.438;13.240;2023-08-17T00:29:51;6.07;;;1.70;;
75645;SDS011;64237;52.438;13.240;2023-08-17T00:32:16;4.00;;;1.63;;
75645;SDS011;64237;52.438;13.240;2023-08-17T00:34:41;6.80;;;2.10;;
75645;SDS011;64237;52.438;13.240;2023-08-17T00:37:07;6.00;;;1.97;;
75645;SDS011;64237;52.438;13.240;2023-08-17T00:39:32;6.20;;;2.10;;
75645;SDS011;64237;52.438;13.240;2023-08-17T00:41:57;4.47;;;1.70;;
75645;SDS011;64237;52.438;13.240;2023-08-17T00:44:22;4.37;;;1.73;;
75645;SDS011;64237;52.438;13.240;2023-08-17T00:46:48;6.47;;;2.00;;
75645;SDS011;64237;52.438;13.240;2023-08-17T00:49:13;4.50;;;1.90;;
75645;SDS011;64237;52.438;13.240;2023-08-17T00:51:39;4.63;;;1.70;;
75645;SDS011;64237;52.438;13.240;2023-08-17T00:54:04;5.22;;;2.05;;
75645;SDS011;64237;52.438;13.240;2023-08-17T00:56:30;5.47;;;2.20;;
75645;SDS011;64237;52.438;13.240;2023-08-17T00:58:55;3.60;;;2.00;;
75645;SDS011;64237;52.438;13.240;2023-08-17T01:01:21;5.75;;;1.63;;
75645;SDS011;64237;52.438;13.240;2023-08-17T01:03:47;6.15;;;1.85;;
75645;SDS011;64237;52.438;13.240;2023-08-17T01:06:13;3.28;;;1.70;;
75645;SDS011;64237;52.438;13.240;2023-08-17T01:08:39;5.18;;;1.80;;
75645;SDS011;64237;52.438;13.240;2023-08-17T01:13:53;3.03;;;1.90;;
75645;SDS011;64237;52.438;13.240;2023-08-17T01:16:48;5.25;;;1.90;;
75645;SDS011;64237;52.438;13.240;2023-08-17T01:19:26;3.83;;;1.83;;
75645;SDS011;64237;52.438;13.240;2023-08-17T01:21:54;4.90;;;1.92;;
75645;SDS011;64237;52.438;13.240;2023-08-17T01:24:28;5.82;;;2.20;;
75645;SDS011;64237;52.438;13.240;2023-08-17T01:26:53;4.00;;;2.10;;
75645;SDS011;64237;52.438;13.240;2023-08-17T01:29:18;6.10;;;1.90;;
75645;SDS011;64237;52.438;13.240;2023-08-17T01:31:48;5.70;;;1.90;;
75645;SDS011;64237;52.438;13.240;2023-08-17T01:34:28;3.33;;;1.70;;
75645;SDS011;64237;52.438;13.240;2023-08-17T01:36:57;5.68;;;2.13;;
75645;SDS011;64237;52.438;13.240;2023-08-17T01:39:30;6.50;;;2.13;;
75645;SDS011;64237;52.438;13.240;2023-08-17T01:42:02;4.10;;;1.70;;
75645;SDS011;64237;52.438;13.240;2023-08-17T01:44:28;5.28;;;2.20;;
75645;SDS011;64237;52.438;13.240;2023-08-17T01:46:54;6.25;;;2.40;;
75645;SDS011;64237;52.438;13.240;2023-08-17T01:49:19;3.35;;;1.52;;
75645;SDS011;64237;52.438;13.240;2023-08-17T01:51:45;5.17;;;1.83;;
75645;SDS011;64237;52.438;13.240;2023-08-17T01:54:10;6.10;;;2.10;;
75645;SDS011;64237;52.438;13.240;2023-08-17T01:56:35;4.95;;;1.77;;
75645;SDS011;64237;52.438;13.240;2023-08-17T01:59:01;5.83;;;2.00;;
75645;SDS011;64237;52.438;13.240;2023-08-17T02:01:26;4.90;;;1.90;;
75645;SDS011;64237;52.438;13.240;2023-08-17T02:03:51;6.20;;;2.10;;
75645;SDS011;64237;52.438;13.240;2023-08-17T02:06:17;7.00;;;2.13;;
75645;SDS011;64237;52.438;13.240;2023-08-17T02:08:42;6.15;;;2.17;;
75645;SDS011;64237;52.438;13.240;2023-08-17T02:11:08;5.72;;;2.03;;
75645;SDS011;64237;52.438;13.240;2023-08-17T02:13:35;5.63;;;2.00;;
75645;SDS011;64237;52.438;13.240;2023-08-17T02:16:01;6.38;;;1.80;;
75645;SDS011;64237;52.438;13.240;2023-08-17T02:18:26;6.77;;;2.00;;
75645;SDS011;64237;52.438;13.240;2023-08-17T02:20:55;4.72;;;2.10;;
75645;SDS011;64237;52.438;13.240;2023-08-17T02:23:21;4.97;;;1.97;;
75645;SDS011;64237;52.438;13.240;2023-08-17T02:25:46;3.23;;;1.80;;
75645;SDS011;64237;52.438;13.240;2023-08-17T02:28:11;6.65;;;2.20;;
75645;SDS011;64237;52.438;13.240;2023-08-17T02:30:37;4.93;;;1.77;;
75645;SDS011;64237;52.438;13.240;2023-08-17T02:33:02;6.70;;;2.10;;
75645;SDS011;64237;52.438;13.240;2023-08-17T02:35:28;4.65;;;1.90;;
75645;SDS011;64237;52.438;13.240;2023-08-17T02:37:53;11.13;;;2.13;;
75645;SDS011;64237;52.438;13.240;2023-08-17T02:40:18;4.95;;;1.80;;
75645;SDS011;64237;52.438;13.240;2023-08-17T02:42:44;5.00;;;2.10;;
75645;SDS011;64237;52.438;13.240;2023-08-17T02:45:09;4.30;;;1.83;;
75645;SDS011;64237;52.438;13.240;2023-08-17T02:47:34;6.47;;;2.00;;
75645;SDS011;64237;52.438;13.240;2023-08-17T02:50:00;4.78;;;2.00;;
75645;SDS011;64237;52.438;13.240;2023-08-17T02:52:25;5.43;;;2.07;;
75645;SDS011;64237;52.438;13.240;2023-08-17T02:54:50;5.47;;;2.20;;
75645;SDS011;64237;52.438;13.240;2023-08-17T02:57:16;6.85;;;2.15;;
75645;SDS011;64237;52.438;13.240;2023-08-17T02:59:42;6.82;;;1.90;;
75645;SDS011;64237;52.438;13.240;2023-08-17T03:02:08;4.50;;;1.90;;
75645;SDS011;64237;52.438;13.240;2023-08-17T03:04:33;5.78;;;1.95;;
75645;SDS011;64237;52.438;13.240;2023-08-17T03:06:58;4.47;;;2.10;;
75645;SDS011;64237;52.438;13.240;2023-08-17T03:09:24;7.97;;;2.03;;
75645;SDS011;64237;52.438;13.240;2023-08-17T03:11:49;5.67;;;1.90;;
75645;SDS011;64237;52.438;13.240;2023-08-17T03:14:14;4.50;;;1.80;;
75645;SDS011;64237;52.438;13.240;2023-08-17T03:16:40;4.80;;;1.90;;
75645;SDS011;64237;52.438;13.240;2023-08-17T03:19:05;7.97;;;2.00;;
75645;SDS011;64237;52.438;13.240;2023-08-17T03:21:32;6.72;;;1.95;;
75645;SDS011;64237;52.438;13.240;2023-08-17T03:23:58;7.50;;;2.10;;
75645;SDS011;64237;52.438;13.240;2023-08-17T03:26:23;5.82;;;2.00;;
75645;SDS011;64237;52.438;13.240;2023-08-17T03:28:49;6.15;;;2.00;;
75645;SDS011;64237;52.438;13.240;2023-08-17T03:31:14;3.20;;;2.03;;
75645;SDS011;64237;52.438;13.240;2023-08-17T03:33:39;5.88;;;1.80;;
75645;SDS011;64237;52.438;13.240;2023-08-17T03:36:05;4.78;;;1.80;;
75645;SDS011;64237;52.438;13.240;2023-08-17T03:38:31;5.05;;;1.58;;
75645;SDS011;64237;52.438;13.240;2023-08-17T03:40:56;4.90;;;1.70;;
75645;SDS011;64237;52.438;13.240;2023-08-17T03:43:22;4.88;;;1.70;;
75645;SDS011;64237;52.438;13.240;2023-08-17T03:45:47;5.57;;;2.00;;
75645;SDS011;64237;52.438;13.240;2023-08-17T03:48:13;3.90;;;1.73;;
75645;SDS011;64237;52.438;13.240;2023-08-17T03:50:38;2.85;;;1.60;;
75645;SDS011;64237;52.438;13.240;2023-08-17T03:53:03;4.60;;;1.80;;
75645;SDS011;64237;52.438;13.240;2023-08-17T03:55:29;5.32;;;2.35;;
75645;SDS011;64237;52.438;13.240;2023-08-17T03:57:54;4.70;;;1.98;;
75645;SDS011;64237;52.438;13.240;2023-08-17T04:00:19;10.17;;;1.93;;
75645;SDS011;64237;52.438;13.240;2023-08-17T04:02:45;5.77;;;1.73;;
75645;SDS011;64237;52.438;13.240;2023-08-17T04:05:10;3.20;;;1.60;;
75645;SDS011;64237;52.438;13.240;2023-08-17T04:07:36;3.97;;;1.60;;
75645;SDS011;64237;52.438;13.240;2023-08-17T04:10:02;4.78;;;1.75;;
75645;SDS011;64237;52.438;13.240;2023-08-17T04:12:27;4.30;;;1.90;;
75645;SDS011;64237;52.438;13.240;2023-08-17T04:14:53;5.60;;;1.83;;
75645;SDS011;64237;52.438;13.240;2023-08-17T04:17:18;4.67;;;1.67;;
75645;SDS011;64237;52.438;13.240;2023-08-17T04:19:45;4.65;;;1.70;;
75645;SDS011;64237;52.438;13.240;2023-08-17T04:22:11;4.87;;;2.00;;
75645;SDS011;64237;52.438;13.240;2023-08-17T04:24:36;6.63;;;1.87;;
75645;SDS011;64237;52.438;13.240;2023-08-17T04:27:01;4.70;;;1.85;;
75645;SDS011;64237;52.438;13.240;2023-08-17T04:29:27;4.03;;;1.70;;
75645;SDS011;64237;52.438;13.240;2023-08-17T04:31:52;5.47;;;1.80;;
75645;SDS011;64237;52.438;13.240;2023-08-17T04:34:18;5.20;;;1.90;;
75645;SDS011;64237;52.438;13.240;2023-08-17T04:36:44;3.63;;;1.60;;
75645;SDS011;64237;52.438;13.240;2023-08-17T04:39:09;3.78;;;1.60;;
75645;SDS011;64237;52.438;13.240;2023-08-17T04:41:34;5.80;;;1.90;;
75645;SDS011;64237;52.438;13.240;2023-08-17T04:44:00;4.90;;;1.63;;
75645;SDS011;64237;52.438;13.240;2023-08-17T04:46:25;2.58;;;1.60;;
75645;SDS011;64237;52.438;13.240;2023-08-17T04:48:50;4.03;;;1.90;;
75645;SDS011;64237;52.438;13.240;2023-08-17T04:51:17;6.47;;;1.70;;
75645;SDS011;64237;52.438;13.240;2023-08-17T04:53:42;4.88;;;1.60;;
75645;SDS011;64237;52.438;13.240;2023-08-17T04:56:08;4.95;;;1.80;;
75645;SDS011;64237;52.438;13.240;2023-08-17T04:58:33;4.68;;;1.75;;
75645;SDS011;64237;52.438;13.240;2023-08-17T05:00:59;3.87;;;1.40;;
75645;SDS011;64237;52.438;13.240;2023-08-17T05:03:24;6.22;;;1.83;;
75645;SDS011;64237;52.438;13.240;2023-08-17T05:05:51;3.20;;;1.33;;
75645;SDS011;64237;52.438;13.240;2023-08-17T05:08:17;5.28;;;1.60;;
75645;SDS011;64237;52.438;13.240;2023-08-17T05:10:42;4.65;;;1.65;;
75645;SDS011;64237;52.438;13.240;2023-08-17T05:13:08;3.53;;;1.50;;
75645;SDS011;64237;52.438;13.240;2023-08-17T05:15:33;3.87;;;1.60;;
75645;SDS011;64237;52.438;13.240;2023-08-17T05:17:58;2.53;;;1.45;;
75645;SDS011;64237;52.438;13.240;2023-08-17T05:20:24;5.65;;;1.67;;
75645;SDS011;64237;52.438;13.240;2023-08-17T05:22:49;4.93;;;1.40;;
75645;SDS011;64237;52.438;13.240;2023-08-17T05:25:14;6.03;;;1.77;;
75645;SDS011;64237;52.438;13.240;2023-08-17T05:27:39;4.55;;;1.67;;
75645;SDS011;64237;52.438;13.240;2023-08-17T05:30:05;3.85;;;1.50;;
75645;SDS011;64237;52.438;13.240;2023-08-17T05:32:31;4.40;;;1.55;;
75645;SDS011;64237;52.438;13.240;2023-08-17T05:34:57;4.70;;;1.60;;
75645;SDS011;64237;52.438;13.240;2023-08-17T05:37:22;5.50;;;1.70;;
75645;SDS011;64237;52.438;13.240;2023-08-17T05:39:47;3.35;;;1.70;;
75645;SDS011;64237;52.438;13.240;2023-08-17T05:42:13;4.27;;;1.70;;
75645;SDS011;64237;52.438;13.240;2023-08-17T05:44:38;4.70;;;1.70;;
75645;SDS011;64237;52.438;13.240;2023-08-17T05:47:03;6.68;;;1.95;;
75645;SDS011;64237;52.438;13.240;2023-08-17T05:49:29;5.72;;;1.95;;
75645;SDS011;64237;52.438;13.240;2023-08-17T05:51:54;4.85;;;1.80;;
75645;SDS011;64237;52.438;13.240;2023-08-17T05:54:19;4.40;;;1.77;;
75645;SDS011;64237;52.438;13.240;2023-08-17T05:56:45;5.27;;;1.67;;
75645;SDS011;64237;52.438;13.240;2023-08-17T05:59:12;5.20;;;1.80;;
75645;SDS011;64237;52.438;13.240;2023-08-17T06:01:38;5.75;;;1.70;;
75645;SDS011;64237;52.438;13.240;2023-08-17T06:04:04;4.07;;;1.73;;
75645;SDS011;64237;52.438;13.240;2023-08-17T06:06:30;4.15;;;1.92;;
75645;SDS011;64237;52.438;13.240;2023-08-17T06:08:56;4.75;;;2.17;;
75645;SDS011;64237;52.438;13.240;2023-08-17T06:11:21;3.23;;;1.50;;
75645;SDS011;64237;52.438;13.240;2023-08-17T06:13:48;5.20;;;1.98;;
75645;SDS011;64237;52.438;13.240;2023-08-17T06:16:13;5.25;;;1.90;;
75645;SDS011;64237;52.438;13.240;2023-08-17T06:18:38;5.85;;;1.85;;
75645;SDS011;64237;52.438;13.240;2023-08-17T06:21:04;5.53;;;1.75;;
75645;SDS011;64237;52.438;13.240;2023-08-17T06:23:29;5.85;;;2.00;;
75645;SDS011;64237;52.438;13.240;2023-08-17T06:25:58;2.90;;;1.80;;
75645;SDS011;64237;52.438;13.240;2023-08-17T06:28:24;5.35;;;2.00;;
75645;SDS011;64237;52.438;13.240;2023-08-17T06:30:54;6.18;;;1.88;;
75645;SDS011;64237;52.438;13.240;2023-08-17T06:33:20;4.25;;;2.00;;
75645;SDS011;64237;52.438;13.240;2023-08-17T06:35:46;6.80;;;2.13;;
75645;SDS011;64237;52.438;13.240;2023-08-17T06:38:11;6.22;;;2.17;;
75645;SDS011;64237;52.438;13.240;2023-08-17T06:40:37;10.30;;;2.97;;
75645;SDS011;64237;52.438;13.240;2023-08-17T06:43:02;7.03;;;2.40;;
75645;SDS011;64237;52.438;13.240;2023-08-17T06:45:28;5.15;;;2.40;;
75645;SDS011;64237;52.438;13.240;2023-08-17T06:47:54;6.05;;;2.70;;
75645;SDS011;64237;52.438;13.240;2023-08-17T06:50:19;7.07;;;2.97;;
75645;SDS011;64237;52.438;13.240;2023-08-17T06:52:44;8.77;;;3.00;;
75645;SDS011;64237;52.438;13.240;2023-08-17T06:55:10;11.23;;;3.20;;
75645;SDS011;64237;52.438;13.240;2023-08-17T06:57:35;8.65;;;3.53;;
75645;SDS011;64237;52.438;13.240;2023-08-17T07:00:01;8.85;;;3.60;;
75645;SDS011;64237;52.438;13.240;2023-08-17T07:02:30;7.88;;;3.28;;
75645;SDS011;64237;52.438;13.240;2023-08-17T07:04:55;9.55;;;3.55;;
75645;SDS011;64237;52.438;13.240;2023-08-17T07:07:20;7.20;;;3.30;;
75645;SDS011;64237;52.438;13.240;2023-08-17T07:09:46;7.53;;;3.57;;
75645;SDS011;64237;52.438;13.240;2023-08-17T07:12:11;7.68;;;3.33;;
75645;SDS011;64237;52.438;13.240;2023-08-17T07:14:36;8.43;;;3.57;;
75645;SDS011;64237;52.438;13.240;2023-08-17T07:17:02;8.98;;;3.28;;
75645;SDS011;64237;52.438;13.240;2023-08-17T07:19:27;7.60;;;3.45;;
75645;SDS011;64237;52.438;13.240;2023-08-17T07:21:53;6.97;;;3.23;;
75645;SDS011;64237;52.438;13.240;2023-08-17T07:24:18;6.97;;;3.83;;
75645;SDS011;64237;52.438;13.240;2023-08-17T07:26:43;9.48;;;3.97;;
75645;SDS011;64237;52.438;13.240;2023-08-17T07:29:09;11.40;;;4.03;;
75645;SDS011;64237;52.438;13.240;2023-08-17T07:31:34;8.80;;;3.40;;
75645;SDS011;64237;52.438;13.240;2023-08-17T07:34:02;6.65;;;3.45;;
75645;SDS011;64237;52.438;13.240;2023-08-17T07:36:28;8.20;;;3.80;;
75645;SDS011;64237;52.438;13.240;2023-08-17T07:38:53;8.30;;;3.60;;
75645;SDS011;64237;52.438;13.240;2023-08-17T07:41:19;10.03;;;3.40;;
75645;SDS011;64237;52.438;13.240;2023-08-17T07:43:44;7.73;;;3.37;;
75645;SDS011;64237;52.438;13.240;2023-08-17T07:46:09;6.63;;;3.40;;
75645;SDS011;64237;52.438;13.240;2023-08-17T07:48:35;8.18;;;3.50;;
75645;SDS011;64237;52.438;13.240;2023-08-17T07:51:00;6.60;;;3.30;;
75645;SDS011;64237;52.438;13.240;2023-08-17T07:53:25;5.45;;;2.72;;
75645;SDS011;64237;52.438;13.240;2023-08-17T07:55:51;7.07;;;2.95;;
75645;SDS011;64237;52.438;13.240;2023-08-17T07:58:16;8.10;;;3.40;;
75645;SDS011;64237;52.438;13.240;2023-08-17T08:00:41;7.65;;;3.30;;
75645;SDS011;64237;52.438;13.240;2023-08-17T08:03:07;7.00;;;3.57;;
75645;SDS011;64237;52.438;13.240;2023-08-17T08:05:32;6.53;;;3.28;;
75645;SDS011;64237;52.438;13.240;2023-08-17T08:07:58;6.85;;;2.85;;
75645;SDS011;64237;52.438;13.240;2023-08-17T08:10:23;7.28;;;3.20;;
75645;SDS011;64237;52.438;13.240;2023-08-17T08:12:49;6.68;;;3.22;;
75645;SDS011;64237;52.438;13.240;2023-08-17T08:15:14;7.63;;;3.10;;
75645;SDS011;64237;52.438;13.240;2023-08-17T08:17:40;5.38;;;2.83;;
75645;SDS011;64237;52.438;13.240;2023-08-17T08:20:05;8.40;;;3.03;;
75645;SDS011;64237;52.438;13.240;2023-08-17T08:22:31;7.10;;;3.28;;
75645;SDS011;64237;52.438;13.240;2023-08-17T08:24:57;6.80;;;2.92;;
75645;SDS011;64237;52.438;13.240;2023-08-17T08:27:23;8.57;;;3.13;;
75645;SDS011;64237;52.438;13.240;2023-08-17T08:29:49;7.82;;;3.17;;
75645;SDS011;64237;52.438;13.240;2023-08-17T08:32:14;5.13;;;2.47;;
75645;SDS011;64237;52.438;13.240;2023-08-17T08:34:40;6.60;;;3.50;;
75645;SDS011;64237;52.438;13.240;2023-08-17T08:37:05;5.80;;;2.85;;
75645;SDS011;64237;52.438;13.240;2023-08-17T08:39:30;6.70;;;3.03;;
75645;SDS011;64237;52.438;13.240;2023-08-17T08:41:56;6.23;;;2.80;;
75645;SDS011;64237;52.438;13.240;2023-08-17T08:44:21;8.35;;;2.80;;
75645;SDS011;64237;52.438;13.240;2023-08-17T08:46:48;6.38;;;2.47;;
75645;SDS011;64237;52.438;13.240;2023-08-17T08:49:16;7.10;;;3.47;;
75645;SDS011;64237;52.438;13.240;2023-08-17T08:51:48;8.45;;;3.10;;
75645;SDS011;64237;52.438;13.240;2023-08-17T08:54:17;5.53;;;2.85;;
75645;SDS011;64237;52.438;13.240;2023-08-17T08:56:47;5.60;;;2.95;;
75645;SDS011;64237;52.438;13.240;2023-08-17T08:59:18;6.20;;;2.67;;
75645;SDS011;64237;52.438;13.240;2023-08-17T09:01:45;6.70;;;2.75;;
75645;SDS011;64237;52.438;13.240;2023-08-17T09:04:11;7.63;;;3.10;;
75645;SDS011;64237;52.438;13.240;2023-08-17T09:06:37;5.18;;;2.80;;
75645;SDS011;64237;52.438;13.240;2023-08-17T09:09:04;6.07;;;2.50;;
75645;SDS011;64237;52.438;13.240;2023-08-17T09:11:31;6.35;;;2.88;;
75645;SDS011;64237;52.438;13.240;2023-08-17T09:13:56;8.27;;;2.77;;
75645;SDS011;64237;52.438;13.240;2023-08-17T09:16:21;8.75;;;3.30;;
75645;SDS011;64237;52.438;13.240;2023-08-17T09:18:47;6.60;;;3.00;;
75645;SDS011;64237;52.438;13.240;2023-08-17T09:21:25;7.87;;;2.40;;
75645;SDS011;64237;52.438;13.240;2023-08-17T09:23:54;9.23;;;3.00;;
75645;SDS011;64237;52.438;13.240;2023-08-17T09:26:20;6.13;;;2.97;;
75645;SDS011;64237;52.438;13.240;2023-08-17T09:28:48;8.38;;;2.83;;
75645;SDS011;64237;52.438;13.240;2023-08-17T09:31:14;7.43;;;3.20;;
75645;SDS011;64237;52.438;13.240;2023-08-17T09:33:39;5.13;;;2.63;;
75645;SDS011;64237;52.438;13.240;2023-08-17T09:36:04;7.23;;;2.70;;
75645;SDS011;64237;52.438;13.240;2023-08-17T09:38:30;8.15;;;3.10;;
75645;SDS011;64237;52.438;13.240;2023-08-17T09:40:57;7.57;;;2.97;;
75645;SDS011;64237;52.438;13.240;2023-08-17T09:43:23;6.15;;;2.78;;
75645;SDS011;64237;52.438;13.240;2023-08-17T09:45:50;8.93;;;3.28;;
75645;SDS011;64237;52.438;13.240;2023-08-17T09:48:16;7.67;;;3.20;;
75645;SDS011;64237;52.438;13.240;2023-08-17T09:50:45;5.72;;;3.05;;
75645;SDS011;64237;52.438;13.240;2023-08-17T09:53:12;6.00;;;2.70;;
75645;SDS011;64237;52.438;13.240;2023-08-17T09:55:40;8.30;;;3.13;;
75645;SDS011;64237;52.438;13.240;2023-08-17T09:58:06;5.03;;;2.90;;
75645;SDS011;64237;52.438;13.240;2023-08-17T10:00:31;9.95;;;3.38;;
75645;SDS011;64237;52.438;13.240;2023-08-17T10:02:58;6.75;;;3.08;;
75645;SDS011;64237;52.438;13.240;2023-08-17T10:05:28;6.72;;;3.20;;
75645;SDS011;64237;52.438;13.240;2023-08-17T10:07:57;7.80;;;3.13;;
75645;SDS011;64237;52.438;13.240;2023-08-17T10:10:25;6.93;;;2.72;;
75645;SDS011;64237;52.438;13.240;2023-08-17T10:13:03;6.20;;;2.95;;
75645;SDS011;64237;52.438;13.240;2023-08-17T10:15:34;9.85;;;3.40;;
75645;SDS011;64237;52.438;13.240;2023-08-17T10:20:42;4.40;;;2.38;;
75645;SDS011;64237;52.438;13.240;2023-08-17T10:23:17;7.25;;;3.03;;
75645;SDS011;64237;52.438;13.240;2023-08-17T10:25:46;5.13;;;2.67;;
75645;SDS011;64237;52.438;13.240;2023-08-17T10:28:12;7.93;;;3.00;;
75645;SDS011;64237;52.438;13.240;2023-08-17T10:30:38;6.30;;;2.70;;
75645;SDS011;64237;52.438;13.240;2023-08-17T10:33:07;6.38;;;2.80;;
75645;SDS011;64237;52.438;13.240;2023-08-17T10:35:34;5.93;;;2.42;;
75645;SDS011;64237;52.438;13.240;2023-08-17T10:38:02;7.63;;;2.40;;
75645;SDS011;64237;52.438;13.240;2023-08-17T10:40:28;7.82;;;2.50;;
75645;SDS011;64237;52.438;13.240;2023-08-17T10:42:59;6.70;;;2.47;;
75645;SDS011;64237;52.438;13.240;2023-08-17T10:45:28;5.55;;;2.42;;
75645;SDS011;64237;52.438;13.240;2023-08-17T10:50:34;9.90;;;2.67;;
75645;SDS011;64237;52.438;13.240;2023-08-17T10:53:04;4.60;;;2.40;;
75645;SDS011;64237;52.438;13.240;2023-08-17T10:55:37;4.68;;;2.40;;
75645;SDS011;64237;52.438;13.240;2023-08-17T10:58:07;6.93;;;2.42;;
75645;SDS011;64237;52.438;13.240;2023-08-17T11:00:38;17.88;;;2.83;;
75645;SDS011;64237;52.438;13.240;2023-08-17T11:03:05;5.88;;;2.83;;
75645;SDS011;64237;52.438;13.240;2023-08-17T11:05:42;5.65;;;2.63;;
75645;SDS011;64237;52.438;13.240;2023-08-17T11:08:20;5.85;;;2.28;;
75645;SDS011;64237;52.438;13.240;2023-08-17T11:13:43;4.90;;;2.42;;
75645;SDS011;64237;52.438;13.240;2023-08-17T11:16:11;6.93;;;2.70;;
75645;SDS011;64237;52.438;13.240;2023-08-17T11:18:38;7.00;;;2.78;;
75645;SDS011;64237;52.438;13.240;2023-08-17T11:21:05;4.85;;;2.65;;
75645;SDS011;64237;52.438;13.240;2023-08-17T11:23:32;5.40;;;2.50;;
75645;SDS011;64237;52.438;13.240;2023-08-17T11:25:58;5.75;;;2.65;;
75645;SDS011;64237;52.438;13.240;2023-08-17T11:28:24;7.90;;;3.28;;
75645;SDS011;64237;52.438;13.240;2023-08-17T11:31:00;5.95;;;2.85;;
75645;SDS011;64237;52.438;13.240;2023-08-17T11:33:27;6.63;;;2.80;;
75645;SDS011;64237;52.438;13.240;2023-08-17T11:35:59;5.68;;;3.00;;
75645;SDS011;64237;52.438;13.240;2023-08-17T11:38:30;4.78;;;2.88;;
75645;SDS011;64237;52.438;13.240;2023-08-17T11:40:57;4.72;;;2.60;;
75645;SDS011;64237;52.438;13.240;2023-08-17T11:43:23;7.40;;;2.80;;
75645;SDS011;64237;52.438;13.240;2023-08-17T11:45:49;6.65;;;2.95;;
75645;SDS011;64237;52.438;13.240;2023-08-17T11:48:14;6.53;;;3.10;;
75645;SDS011;64237;52.438;13.240;2023-08-17T11:50:41;5.28;;;2.80;;
75645;SDS011;64237;52.438;13.240;2023-08-17T11:53:07;6.10;;;2.90;;
75645;SDS011;64237;52.438;13.240;2023-08-17T11:55:32;6.93;;;3.42;;
75645;SDS011;64237;52.438;13.240;2023-08-17T11:57:58;7.55;;;3.20;;
75645;SDS011;64237;52.438;13.240;2023-08-17T12:00:23;4.90;;;2.80;;
75645;SDS011;64237;52.438;13.240;2023-08-17T12:02:51;6.80;;;2.80;;
75645;SDS011;64237;52.438;13.240;2023-08-17T12:05:23;6.68;;;2.70;;
75645;SDS011;64237;52.438;13.240;2023-08-17T12:07:54;5.88;;;2.83;;
75645;SDS011;64237;52.438;13.240;2023-08-17T12:10:20;6.40;;;3.00;;
75645;SDS011;64237;52.438;13.240;2023-08-17T12:12:47;6.35;;;2.80;;
75645;SDS011;64237;52.438;13.240;2023-08-17T12:15:13;5.32;;;2.90;;
75645;SDS011;64237;52.438;13.240;2023-08-17T12:17:48;5.18;;;2.90;;
75645;SDS011;64237;52.438;13.240;2023-08-17T12:20:16;6.53;;;3.05;;
75645;SDS011;64237;52.438;13.240;2023-08-17T12:22:42;6.65;;;2.88;;
75645;SDS011;64237;52.438;13.240;2023-08-17T12:25:08;6.85;;;3.13;;
75645;SDS011;64237;52.438;13.240;2023-08-17T12:27:35;9.32;;;3.58;;
75645;SDS011;64237;52.438;13.240;2023-08-17T12:30:00;6.60;;;2.88;;
75645;SDS011;64237;52.438;13.240;2023-08-17T12:32:26;7.10;;;3.10;;
75645;SDS011;64237;52.438;13.240;2023-08-17T12:34:52;5.70;;;3.10;;
75645;SDS011;64237;52.438;13.240;2023-08-17T12:37:20;6.93;;;3.27;;
75645;SDS011;64237;52.438;13.240;2023-08-17T12:39:46;7.03;;;3.00;;
75645;SDS011;64237;52.438;13.240;2023-08-17T12:42:12;7.25;;;3.55;;
75645;SDS011;64237;52.438;13.240;2023-08-17T12:44:38;7.95;;;3.10;;
75645;SDS011;64237;52.438;13.240;2023-08-17T12:47:04;5.70;;;3.42;;
75645;SDS011;64237;52.438;13.240;2023-08-17T12:49:29;7.32;;;3.60;;
75645;SDS011;64237;52.438;13.240;2023-08-17T12:51:55;6.67;;;3.13;;
75645;SDS011;64237;52.438;13.240;2023-08-17T12:54:20;7.20;;;3.17;;
75645;SDS011;64237;52.438;13.240;2023-08-17T12:56:45;6.10;;;3.30;;
75645;SDS011;64237;52.438;13.240;2023-08-17T12:59:11;6.10;;;3.65;;
75645;SDS011;64237;52.438;13.240;2023-08-17T13:01:36;8.37;;;3.60;;
75645;SDS011;64237;52.438;13.240;2023-08-17T13:04:01;8.85;;;3.50;;
75645;SDS011;64237;52.438;13.240;2023-08-17T13:06:27;5.95;;;3.22;;
75645;SDS011;64237;52.438;13.240;2023-08-17T13:08:52;6.93;;;3.35;;
75645;SDS011;64237;52.438;13.240;2023-08-17T13:11:18;6.78;;;3.35;;
75645;SDS011;64237;52.438;13.240;2023-08-17T13:13:43;5.55;;;3.45;;
75645;SDS011;64237;52.438;13.240;2023-08-17T13:16:08;6.47;;;3.33;;
75645;SDS011;64237;52.438;13.240;2023-08-17T13:18:34;6.07;;;3.20;;
75645;SDS011;64237;52.438;13.240;2023-08-17T13:20:59;7.73;;;3.20;;
75645;SDS011;64237;52.438;13.240;2023-08-17T13:23:25;6.50;;;3.47;;
75645;SDS011;64237;52.438;13.240;2023-08-17T13:25:50;5.88;;;3.47;;
75645;SDS011;64237;52.438;13.240;2023-08-17T13:28:16;6.45;;;3.60;;
75645;SDS011;64237;52.438;13.240;2023-08-17T13:30:41;8.02;;;3.70;;
75645;SDS011;64237;52.438;13.240;2023-08-17T13:33:07;6.70;;;3.90;;
75645;SDS011;64237;52.438;13.240;2023-08-17T13:35:32;7.15;;;4.00;;
75645;SDS011;64237;52.438;13.240;2023-08-17T13:37:58;7.30;;;3.70;;
75645;SDS011;64237;52.438;13.240;2023-08-17T13:40:24;7.73;;;3.93;;
75645;SDS011;64237;52.438;13.240;2023-08-17T13:42:49;7.07;;;3.50;;
75645;SDS011;64237;52.438;13.240;2023-08-17T13:45:15;6.50;;;3.37;;
75645;SDS011;64237;52.438;13.240;2023-08-17T13:47:40;6.88;;;4.10;;
75645;SDS011;64237;52.438;13.240;2023-08-17T13:50:05;7.10;;;3.75;;
75645;SDS011;64237;52.438;13.240;2023-08-17T13:52:31;6.68;;;3.80;;
75645;SDS011;64237;52.438;13.240;2023-08-17T13:54:56;8.27;;;3.63;;
75645;SDS011;64237;52.438;13.240;2023-08-17T13:57:22;6.63;;;3.60;;
75645;SDS011;64237;52.438;13.240;2023-08-17T13:59:47;9.80;;;4.27;;
75645;SDS011;64237;52.438;13.240;2023-08-17T14:02:12;8.23;;;4.15;;
75645;SDS011;64237;52.438;13.240;2023-08-17T14:04:38;5.93;;;3.67;;
75645;SDS011;64237;52.438;13.240;2023-08-17T14:07:03;6.57;;;3.70;;
75645;SDS011;64237;52.438;13.240;2023-08-17T14:09:29;6.72;;;3.67;;
75645;SDS011;64237;52.438;13.240;2023-08-17T14:11:55;7.20;;;3.97;;
75645;SDS011;64237;52.438;13.240;2023-08-17T14:14:20;6.38;;;3.55;;
75645;SDS011;64237;52.438;13.240;2023-08-17T14:16:45;6.27;;;3.90;;
75645;SDS011;64237;52.438;13.240;2023-08-17T14:19:11;6.87;;;4.00;;
75645;SDS011;64237;52.438;13.240;2023-08-17T14:21:36;7.17;;;3.90;;
75645;SDS011;64237;52.438;13.240;2023-08-17T14:24:02;6.00;;;3.63;;
75645;SDS011;64237;52.438;13.240;2023-08-17T14:26:27;6.70;;;3.70;;
75645;SDS011;64237;52.438;13.240;2023-08-17T14:28:52;6.63;;;3.60;;
75645;SDS011;64237;52.438;13.240;2023-08-17T14:31:18;7.43;;;3.87;;
75645;SDS011;64237;52.438;13.240;2023-08-17T14:33:43;7.22;;;3.67;;
75645;SDS011;64237;52.438;13.240;2023-08-17T14:36:12;7.90;;;4.13;;
75645;SDS011;64237;52.438;13.240;2023-08-17T14:38:38;7.15;;;3.97;;